sensor_id;sensor_type;location;lat;lon;timestamp;P1;durP1;ratioP1;P2;durP2;ratioP2
29240;SDS011;16268;49.880;8.648;2022-10-17T00:00:12;7.22;;;3.42;;
29240;SDS011;16268;49.880;8.648;2022-10-17T00:02:37;8.20;;;3.38;;
29240;SDS011;16268;49.880;8.648;2022-10-17T00:05:03;9.07;;;4.05;;
29240;SDS011;16268;49.880;8.648;2022-10-17T00:07:29;9.27;;;3.95;;
29240;SDS011;16268;49.880;8.648;2022-10-17T00:09:54;6.25;;;3.53;;
29240;SDS011;16268;49.880;8.648;2022-10-17T00:12:20;9.00;;;3.40;;
29240;SDS011;16268;49.880;8.648;2022-10-17T00:14:45;7.07;;;3.75;;
29240;SDS011;16268;49.880;8.648;2022-10-17T00:17:11;10.52;;;3.72;;
29240;SDS011;16268;49.880;8.648;2022-10-17T00:19:37;11.40;;;3.63;;
29240;SDS011;16268;49.880;8.648;2022-10-17T00:22:02;6.80;;;3.10;;
29240;SDS011;16268;49.880;8.648;2022-10-17T00:24:29;12.43;;;4.13;;
29240;SDS011;16268;49.880;8.648;2022-10-17T00:26:55;9.52;;;3.38;;
29240;SDS011;16268;49.880;8.648;2022-10-17T00:29:21;5.88;;;2.80;;
29240;SDS011;16268;49.880;8.648;2022-10-17T00:31:46;16.95;;;3.42;;
29240;SDS011;16268;49.880;8.648;2022-10-17T00:34:12;8.60;;;3.28;;
29240;SDS011;16268;49.880;8.648;2022-10-17T00:36:37;7.60;;;3.20;;
29240;SDS011;16268;49.880;8.648;2022-10-17T00:39:03;11.13;;;3.10;;
29240;SDS011;16268;49.880;8.648;2022-10-17T00:41:29;7.57;;;2.97;;
29240;SDS011;16268;49.880;8.648;2022-10-17T00:43:57;7.57;;;3.10;;
29240;SDS011;16268;49.880;8.648;2022-10-17T00:46:42;9.75;;;2.97;;
29240;SDS011;16268;49.880;8.648;2022-10-17T00:49:09;11.00;;;3.50;;
29240;SDS011;16268;49.880;8.648;2022-10-17T00:51:37;7.32;;;3.03;;
29240;SDS011;16268;49.880;8.648;2022-10-17T00:54:13;9.93;;;3.10;;
29240;SDS011;16268;49.880;8.648;2022-10-17T00:56:40;6.80;;;3.10;;
29240;SDS011;16268;49.880;8.648;2022-10-17T00:59:07;6.68;;;2.92;;
29240;SDS011;16268;49.880;8.648;2022-10-17T01:01:34;10.00;;;3.30;;
29240;SDS011;16268;49.880;8.648;2022-10-17T01:04:00;8.05;;;3.60;;
29240;SDS011;16268;49.880;8.648;2022-10-17T01:06:26;8.38;;;3.30;;
29240;SDS011;16268;49.880;8.648;2022-10-17T01:08:52;7.60;;;3.75;;
29240;SDS011;16268;49.880;8.648;2022-10-17T01:11:31;9.10;;;3.20;;
29240;SDS011;16268;49.880;8.648;2022-10-17T01:14:18;7.18;;;3.17;;
29240;SDS011;16268;49.880;8.648;2022-10-17T01:16:51;10.95;;;3.20;;
29240;SDS011;16268;49.880;8.648;2022-10-17T01:19:32;9.70;;;3.20;;
29240;SDS011;16268;49.880;8.648;2022-10-17T01:28:09;8.63;;;2.75;;
29240;SDS011;16268;49.880;8.648;2022-10-17T01:30:56;6.97;;;3.03;;
29240;SDS011;16268;49.880;8.648;2022-10-17T01:39:28;6.93;;;2.77;;
29240;SDS011;16268;49.880;8.648;2022-10-17T01:41:59;8.35;;;2.97;;
29240;SDS011;16268;49.880;8.648;2022-10-17T01:44:35;9.70;;;3.20;;
29240;SDS011;16268;49.880;8.648;2022-10-17T01:47:11;8.65;;;2.90;;
29240;SDS011;16268;49.880;8.648;2022-10-17T01:49:42;9.30;;;2.90;;
29240;SDS011;16268;49.880;8.648;2022-10-17T01:52:11;9.68;;;3.22;;
29240;SDS011;16268;49.880;8.648;2022-10-17T01:54:41;10.95;;;3.10;;
29240;SDS011;16268;49.880;8.648;2022-10-17T01:57:18;5.68;;;2.70;;
29240;SDS011;16268;49.880;8.648;2022-10-17T01:59:57;6.10;;;2.55;;
29240;SDS011;16268;49.880;8.648;2022-10-17T02:02:23;5.13;;;2.90;;
29240;SDS011;16268;49.880;8.648;2022-10-17T02:04:51;7.47;;;2.70;;
29240;SDS011;16268;49.880;8.648;2022-10-17T02:07:19;5.80;;;2.80;;
29240;SDS011;16268;49.880;8.648;2022-10-17T02:09:44;6.07;;;2.90;;
29240;SDS011;16268;49.880;8.648;2022-10-17T02:18:32;7.68;;;3.50;;
29240;SDS011;16268;49.880;8.648;2022-10-17T02:21:14;6.30;;;3.05;;
29240;SDS011;16268;49.880;8.648;2022-10-17T02:23:52;9.63;;;3.15;;
29240;SDS011;16268;49.880;8.648;2022-10-17T02:26:48;6.70;;;2.97;;
29240;SDS011;16268;49.880;8.648;2022-10-17T02:29:32;8.18;;;3.13;;
29240;SDS011;16268;49.880;8.648;2022-10-17T02:32:10;6.88;;;3.20;;
29240;SDS011;16268;49.880;8.648;2022-10-17T02:34:45;6.68;;;3.35;;
29240;SDS011;16268;49.880;8.648;2022-10-17T02:37:14;7.10;;;3.33;;
29240;SDS011;16268;49.880;8.648;2022-10-17T02:39:45;9.80;;;3.08;;
29240;SDS011;16268;49.880;8.648;2022-10-17T02:42:12;8.82;;;3.38;;
29240;SDS011;16268;49.880;8.648;2022-10-17T02:44:40;10.88;;;3.55;;
29240;SDS011;16268;49.880;8.648;2022-10-17T02:49:44;9.20;;;3.33;;
29240;SDS011;16268;49.880;8.648;2022-10-17T02:52:15;9.85;;;3.15;;
29240;SDS011;16268;49.880;8.648;2022-10-17T02:55:19;8.00;;;3.03;;
29240;SDS011;16268;49.880;8.648;2022-10-17T02:57:47;8.65;;;2.90;;
29240;SDS011;16268;49.880;8.648;2022-10-17T03:00:18;9.00;;;3.10;;
29240;SDS011;16268;49.880;8.648;2022-10-17T03:02:47;6.95;;;3.40;;
29240;SDS011;16268;49.880;8.648;2022-10-17T03:05:16;10.73;;;3.25;;
29240;SDS011;16268;49.880;8.648;2022-10-17T03:07:43;7.47;;;3.40;;
29240;SDS011;16268;49.880;8.648;2022-10-17T03:10:09;9.68;;;3.75;;
29240;SDS011;16268;49.880;8.648;2022-10-17T03:12:34;6.10;;;3.50;;
29240;SDS011;16268;49.880;8.648;2022-10-17T03:15:00;6.78;;;3.50;;
29240;SDS011;16268;49.880;8.648;2022-10-17T03:17:26;8.82;;;3.75;;
29240;SDS011;16268;49.880;8.648;2022-10-17T03:19:51;8.23;;;4.13;;
29240;SDS011;16268;49.880;8.648;2022-10-17T03:22:17;9.25;;;3.90;;
29240;SDS011;16268;49.880;8.648;2022-10-17T03:24:42;7.88;;;3.65;;
29240;SDS011;16268;49.880;8.648;2022-10-17T03:27:08;7.72;;;3.40;;
29240;SDS011;16268;49.880;8.648;2022-10-17T03:29:34;9.68;;;3.17;;
29240;SDS011;16268;49.880;8.648;2022-10-17T03:31:59;7.07;;;3.70;;
29240;SDS011;16268;49.880;8.648;2022-10-17T03:34:25;6.05;;;3.42;;
29240;SDS011;16268;49.880;8.648;2022-10-17T03:36:50;7.03;;;4.03;;
29240;SDS011;16268;49.880;8.648;2022-10-17T03:39:16;9.50;;;3.63;;
29240;SDS011;16268;49.880;8.648;2022-10-17T03:41:41;8.63;;;3.95;;
29240;SDS011;16268;49.880;8.648;2022-10-17T03:44:07;7.32;;;3.60;;
29240;SDS011;16268;49.880;8.648;2022-10-17T03:46:32;7.88;;;3.47;;
29240;SDS011;16268;49.880;8.648;2022-10-17T03:48:58;7.95;;;3.70;;
29240;SDS011;16268;49.880;8.648;2022-10-17T03:51:24;8.43;;;3.30;;
29240;SDS011;16268;49.880;8.648;2022-10-17T03:53:49;8.75;;;3.72;;
29240;SDS011;16268;49.880;8.648;2022-10-17T03:56:16;8.18;;;3.83;;
29240;SDS011;16268;49.880;8.648;2022-10-17T03:58:46;9.52;;;3.40;;
29240;SDS011;16268;49.880;8.648;2022-10-17T04:01:13;5.80;;;3.10;;
29240;SDS011;16268;49.880;8.648;2022-10-17T04:03:40;6.60;;;3.22;;
29240;SDS011;16268;49.880;8.648;2022-10-17T04:06:06;10.27;;;4.00;;
29240;SDS011;16268;49.880;8.648;2022-10-17T04:08:32;8.35;;;3.53;;
29240;SDS011;16268;49.880;8.648;2022-10-17T04:10:59;7.68;;;3.33;;
29240;SDS011;16268;49.880;8.648;2022-10-17T04:13:26;8.07;;;3.92;;
29240;SDS011;16268;49.880;8.648;2022-10-17T04:15:59;11.93;;;3.70;;
29240;SDS011;16268;49.880;8.648;2022-10-17T04:18:26;5.97;;;3.80;;
29240;SDS011;16268;49.880;8.648;2022-10-17T04:20:52;8.35;;;3.30;;
29240;SDS011;16268;49.880;8.648;2022-10-17T04:23:18;7.65;;;4.13;;
29240;SDS011;16268;49.880;8.648;2022-10-17T04:25:43;11.75;;;4.00;;
29240;SDS011;16268;49.880;8.648;2022-10-17T04:28:09;11.00;;;4.07;;
29240;SDS011;16268;49.880;8.648;2022-10-17T04:30:35;12.70;;;3.65;;
29240;SDS011;16268;49.880;8.648;2022-10-17T04:33:00;7.03;;;3.38;;
29240;SDS011;16268;49.880;8.648;2022-10-17T04:35:26;11.43;;;3.85;;
29240;SDS011;16268;49.880;8.648;2022-10-17T04:37:52;8.55;;;3.80;;
29240;SDS011;16268;49.880;8.648;2022-10-17T04:40:17;6.45;;;3.47;;
29240;SDS011;16268;49.880;8.648;2022-10-17T04:42:43;8.02;;;3.30;;
29240;SDS011;16268;49.880;8.648;2022-10-17T04:45:09;7.72;;;3.45;;
29240;SDS011;16268;49.880;8.648;2022-10-17T04:47:34;9.10;;;3.30;;
29240;SDS011;16268;49.880;8.648;2022-10-17T04:50:00;10.95;;;3.50;;
29240;SDS011;16268;49.880;8.648;2022-10-17T04:52:27;12.15;;;4.18;;
29240;SDS011;16268;49.880;8.648;2022-10-17T04:54:52;8.75;;;4.88;;
29240;SDS011;16268;49.880;8.648;2022-10-17T04:57:18;11.40;;;4.97;;
29240;SDS011;16268;49.880;8.648;2022-10-17T04:59:44;8.95;;;4.95;;
29240;SDS011;16268;49.880;8.648;2022-10-17T05:02:09;14.38;;;6.05;;
29240;SDS011;16268;49.880;8.648;2022-10-17T05:04:35;12.13;;;6.07;;
29240;SDS011;16268;49.880;8.648;2022-10-17T05:07:00;12.20;;;5.97;;
29240;SDS011;16268;49.880;8.648;2022-10-17T05:09:26;17.75;;;7.85;;
29240;SDS011;16268;49.880;8.648;2022-10-17T05:11:52;13.07;;;6.93;;
29240;SDS011;16268;49.880;8.648;2022-10-17T05:14:17;17.67;;;7.45;;
29240;SDS011;16268;49.880;8.648;2022-10-17T05:16:43;13.73;;;6.93;;
29240;SDS011;16268;49.880;8.648;2022-10-17T05:19:09;12.40;;;6.85;;
29240;SDS011;16268;49.880;8.648;2022-10-17T05:21:35;15.90;;;7.80;;
29240;SDS011;16268;49.880;8.648;2022-10-17T05:24:03;13.30;;;6.82;;
29240;SDS011;16268;49.880;8.648;2022-10-17T05:26:30;15.52;;;7.88;;
29240;SDS011;16268;49.880;8.648;2022-10-17T05:28:56;15.50;;;6.97;;
29240;SDS011;16268;49.880;8.648;2022-10-17T05:31:24;18.60;;;7.93;;
29240;SDS011;16268;49.880;8.648;2022-10-17T05:33:49;17.52;;;7.75;;
29240;SDS011;16268;49.880;8.648;2022-10-17T05:36:15;14.48;;;7.57;;
29240;SDS011;16268;49.880;8.648;2022-10-17T05:38:41;16.52;;;8.00;;
29240;SDS011;16268;49.880;8.648;2022-10-17T05:41:06;12.55;;;7.28;;
29240;SDS011;16268;49.880;8.648;2022-10-17T05:43:33;14.70;;;7.55;;
29240;SDS011;16268;49.880;8.648;2022-10-17T05:46:02;17.38;;;7.30;;
29240;SDS011;16268;49.880;8.648;2022-10-17T05:48:30;16.77;;;7.18;;
29240;SDS011;16268;49.880;8.648;2022-10-17T05:50:57;20.75;;;7.72;;
29240;SDS011;16268;49.880;8.648;2022-10-17T05:53:23;14.88;;;7.15;;
29240;SDS011;16268;49.880;8.648;2022-10-17T05:55:56;18.15;;;7.65;;
29240;SDS011;16268;49.880;8.648;2022-10-17T05:58:22;11.48;;;6.72;;
29240;SDS011;16268;49.880;8.648;2022-10-17T06:00:48;13.85;;;6.95;;
29240;SDS011;16268;49.880;8.648;2022-10-17T06:03:14;16.13;;;6.53;;
29240;SDS011;16268;49.880;8.648;2022-10-17T06:05:39;11.82;;;6.63;;
29240;SDS011;16268;49.880;8.648;2022-10-17T06:08:05;17.58;;;7.45;;
29240;SDS011;16268;49.880;8.648;2022-10-17T06:10:30;13.70;;;6.50;;
29240;SDS011;16268;49.880;8.648;2022-10-17T06:12:56;14.80;;;6.47;;
29240;SDS011;16268;49.880;8.648;2022-10-17T06:15:21;16.73;;;6.32;;
29240;SDS011;16268;49.880;8.648;2022-10-17T06:17:47;15.38;;;6.35;;
29240;SDS011;16268;49.880;8.648;2022-10-17T06:20:12;13.30;;;6.28;;
29240;SDS011;16268;49.880;8.648;2022-10-17T06:22:38;12.27;;;5.82;;
29240;SDS011;16268;49.880;8.648;2022-10-17T06:25:04;16.15;;;6.20;;
29240;SDS011;16268;49.880;8.648;2022-10-17T06:27:30;11.98;;;5.55;;
29240;SDS011;16268;49.880;8.648;2022-10-17T06:29:55;12.77;;;5.47;;
29240;SDS011;16268;49.880;8.648;2022-10-17T06:32:21;12.75;;;6.40;;
29240;SDS011;16268;49.880;8.648;2022-10-17T06:34:46;12.35;;;5.82;;
29240;SDS011;16268;49.880;8.648;2022-10-17T06:37:12;11.73;;;5.78;;
29240;SDS011;16268;49.880;8.648;2022-10-17T06:39:38;12.40;;;5.97;;
29240;SDS011;16268;49.880;8.648;2022-10-17T06:42:03;14.85;;;6.35;;
29240;SDS011;16268;49.880;8.648;2022-10-17T06:44:29;14.73;;;6.45;;
29240;SDS011;16268;49.880;8.648;2022-10-17T06:46:59;12.35;;;5.70;;
29240;SDS011;16268;49.880;8.648;2022-10-17T06:49:26;10.80;;;5.22;;
29240;SDS011;16268;49.880;8.648;2022-10-17T06:51:52;12.65;;;5.55;;
29240;SDS011;16268;49.880;8.648;2022-10-17T06:54:18;11.88;;;6.30;;
29240;SDS011;16268;49.880;8.648;2022-10-17T06:56:43;12.65;;;5.60;;
29240;SDS011;16268;49.880;8.648;2022-10-17T06:59:09;13.55;;;5.75;;
29240;SDS011;16268;49.880;8.648;2022-10-17T07:01:35;10.73;;;5.43;;
29240;SDS011;16268;49.880;8.648;2022-10-17T07:04:00;12.45;;;5.72;;
29240;SDS011;16268;49.880;8.648;2022-10-17T07:06:26;13.15;;;5.43;;
29240;SDS011;16268;49.880;8.648;2022-10-17T07:08:52;12.75;;;5.65;;
29240;SDS011;16268;49.880;8.648;2022-10-17T07:11:19;13.43;;;5.68;;
29240;SDS011;16268;49.880;8.648;2022-10-17T07:13:46;10.10;;;5.35;;
29240;SDS011;16268;49.880;8.648;2022-10-17T07:16:13;10.82;;;5.80;;
29240;SDS011;16268;49.880;8.648;2022-10-17T07:18:39;11.57;;;6.07;;
29240;SDS011;16268;49.880;8.648;2022-10-17T07:21:05;12.57;;;5.95;;
29240;SDS011;16268;49.880;8.648;2022-10-17T07:23:33;13.75;;;6.05;;
29240;SDS011;16268;49.880;8.648;2022-10-17T07:26:01;16.00;;;6.60;;
29240;SDS011;16268;49.880;8.648;2022-10-17T07:28:31;15.15;;;6.20;;
29240;SDS011;16268;49.880;8.648;2022-10-17T07:33:27;13.15;;;6.03;;
29240;SDS011;16268;49.880;8.648;2022-10-17T07:35:52;12.38;;;5.93;;
29240;SDS011;16268;49.880;8.648;2022-10-17T07:38:18;9.55;;;5.65;;
29240;SDS011;16268;49.880;8.648;2022-10-17T07:40:43;12.48;;;6.10;;
29240;SDS011;16268;49.880;8.648;2022-10-17T07:43:09;10.75;;;5.63;;
29240;SDS011;16268;49.880;8.648;2022-10-17T07:45:35;11.10;;;6.03;;
29240;SDS011;16268;49.880;8.648;2022-10-17T07:48:00;11.05;;;5.50;;
29240;SDS011;16268;49.880;8.648;2022-10-17T07:50:26;12.65;;;5.88;;
29240;SDS011;16268;49.880;8.648;2022-10-17T07:52:51;8.23;;;5.03;;
29240;SDS011;16268;49.880;8.648;2022-10-17T07:55:17;11.68;;;5.38;;
29240;SDS011;16268;49.880;8.648;2022-10-17T07:57:42;10.10;;;5.30;;
29240;SDS011;16268;49.880;8.648;2022-10-17T08:00:08;9.88;;;5.07;;
29240;SDS011;16268;49.880;8.648;2022-10-17T08:02:34;10.85;;;5.00;;
29240;SDS011;16268;49.880;8.648;2022-10-17T08:04:59;9.90;;;4.45;;
29240;SDS011;16268;49.880;8.648;2022-10-17T08:07:25;11.20;;;4.70;;
29240;SDS011;16268;49.880;8.648;2022-10-17T08:09:50;8.13;;;4.72;;
29240;SDS011;16268;49.880;8.648;2022-10-17T08:12:16;7.50;;;4.40;;
29240;SDS011;16268;49.880;8.648;2022-10-17T08:14:42;9.15;;;4.80;;
29240;SDS011;16268;49.880;8.648;2022-10-17T08:17:08;10.93;;;4.78;;
29240;SDS011;16268;49.880;8.648;2022-10-17T08:19:36;11.80;;;4.40;;
29240;SDS011;16268;49.880;8.648;2022-10-17T08:22:03;12.75;;;4.40;;
29240;SDS011;16268;49.880;8.648;2022-10-17T08:24:29;8.30;;;4.20;;
29240;SDS011;16268;49.880;8.648;2022-10-17T08:26:54;6.97;;;3.90;;
29240;SDS011;16268;49.880;8.648;2022-10-17T08:29:22;9.25;;;3.90;;
29240;SDS011;16268;49.880;8.648;2022-10-17T08:31:48;7.97;;;3.55;;
29240;SDS011;16268;49.880;8.648;2022-10-17T08:34:13;9.50;;;4.03;;
29240;SDS011;16268;49.880;8.648;2022-10-17T08:36:39;10.45;;;3.83;;
29240;SDS011;16268;49.880;8.648;2022-10-17T08:39:05;9.48;;;3.40;;
29240;SDS011;16268;49.880;8.648;2022-10-17T08:41:37;8.15;;;3.47;;
29240;SDS011;16268;49.880;8.648;2022-10-17T08:44:46;10.70;;;3.90;;
29240;SDS011;16268;49.880;8.648;2022-10-17T08:47:23;7.15;;;3.30;;
29240;SDS011;16268;49.880;8.648;2022-10-17T08:49:58;8.73;;;3.20;;
29240;SDS011;16268;49.880;8.648;2022-10-17T08:55:12;8.85;;;3.17;;
29240;SDS011;16268;49.880;8.648;2022-10-17T08:57:46;5.45;;;2.75;;
29240;SDS011;16268;49.880;8.648;2022-10-17T09:00:19;8.00;;;2.70;;
29240;SDS011;16268;49.880;8.648;2022-10-17T09:10:54;7.15;;;2.58;;
29240;SDS011;16268;49.880;8.648;2022-10-17T09:17:05;5.72;;;2.55;;
29240;SDS011;16268;49.880;8.648;2022-10-17T09:20:09;6.82;;;2.63;;
29240;SDS011;16268;49.880;8.648;2022-10-17T09:22:37;5.78;;;2.60;;
29240;SDS011;16268;49.880;8.648;2022-10-17T09:25:14;6.30;;;3.20;;
29240;SDS011;16268;49.880;8.648;2022-10-17T09:27:45;5.65;;;2.85;;
29240;SDS011;16268;49.880;8.648;2022-10-17T09:30:43;6.10;;;2.70;;
29240;SDS011;16268;49.880;8.648;2022-10-17T09:33:23;5.60;;;2.60;;
29240;SDS011;16268;49.880;8.648;2022-10-17T09:35:52;5.97;;;2.85;;
29240;SDS011;16268;49.880;8.648;2022-10-17T09:38:20;7.90;;;2.80;;
29240;SDS011;16268;49.880;8.648;2022-10-17T09:40:53;6.05;;;2.80;;
29240;SDS011;16268;49.880;8.648;2022-10-17T09:43:21;8.40;;;2.35;;
29240;SDS011;16268;49.880;8.648;2022-10-17T09:46:11;8.02;;;2.55;;
29240;SDS011;16268;49.880;8.648;2022-10-17T09:48:51;7.90;;;2.40;;
29240;SDS011;16268;49.880;8.648;2022-10-17T09:51:24;5.18;;;2.10;;
29240;SDS011;16268;49.880;8.648;2022-10-17T09:53:51;6.15;;;2.30;;
29240;SDS011;16268;49.880;8.648;2022-10-17T09:56:20;6.25;;;2.42;;
29240;SDS011;16268;49.880;8.648;2022-10-17T09:58:51;9.32;;;2.45;;
29240;SDS011;16268;49.880;8.648;2022-10-17T10:01:27;5.97;;;2.30;;
29240;SDS011;16268;49.880;8.648;2022-10-17T10:04:10;7.25;;;2.50;;
29240;SDS011;16268;49.880;8.648;2022-10-17T10:06:39;5.03;;;2.20;;
29240;SDS011;16268;49.880;8.648;2022-10-17T10:09:06;6.65;;;2.25;;
29240;SDS011;16268;49.880;8.648;2022-10-17T10:11:53;5.40;;;2.17;;
29240;SDS011;16268;49.880;8.648;2022-10-17T10:14:21;7.97;;;2.25;;
29240;SDS011;16268;49.880;8.648;2022-10-17T10:16:47;6.80;;;4.50;;
29240;SDS011;16268;49.880;8.648;2022-10-17T10:21:58;4.03;;;2.17;;
29240;SDS011;16268;49.880;8.648;2022-10-17T10:24:26;6.53;;;2.38;;
29240;SDS011;16268;49.880;8.648;2022-10-17T10:26:52;7.05;;;2.13;;
29240;SDS011;16268;49.880;8.648;2022-10-17T10:29:27;5.57;;;2.10;;
29240;SDS011;16268;49.880;8.648;2022-10-17T10:37:38;5.05;;;2.10;;
29240;SDS011;16268;49.880;8.648;2022-10-17T10:40:18;4.15;;;2.05;;
29240;SDS011;16268;49.880;8.648;2022-10-17T10:42:48;4.93;;;2.10;;
29240;SDS011;16268;49.880;8.648;2022-10-17T10:48:23;5.05;;;1.90;;
29240;SDS011;16268;49.880;8.648;2022-10-17T10:50:56;5.10;;;1.83;;
29240;SDS011;16268;49.880;8.648;2022-10-17T10:56:40;5.18;;;1.80;;
29240;SDS011;16268;49.880;8.648;2022-10-17T10:59:23;4.90;;;1.88;;
29240;SDS011;16268;49.880;8.648;2022-10-17T11:17:34;5.65;;;2.03;;
29240;SDS011;16268;49.880;8.648;2022-10-17T11:22:33;8.15;;;2.20;;
29240;SDS011;16268;49.880;8.648;2022-10-17T11:25:31;4.05;;;1.77;;
29240;SDS011;16268;49.880;8.648;2022-10-17T11:28:01;6.28;;;2.30;;
29240;SDS011;16268;49.880;8.648;2022-10-17T11:30:32;5.95;;;1.90;;
29240;SDS011;16268;49.880;8.648;2022-10-17T11:33:06;5.38;;;1.92;;
29240;SDS011;16268;49.880;8.648;2022-10-17T11:35:37;6.20;;;2.35;;
29240;SDS011;16268;49.880;8.648;2022-10-17T11:40:44;6.30;;;2.15;;
29240;SDS011;16268;49.880;8.648;2022-10-17T11:45:57;6.60;;;2.00;;
29240;SDS011;16268;49.880;8.648;2022-10-17T11:48:33;6.22;;;2.20;;
29240;SDS011;16268;49.880;8.648;2022-10-17T11:51:11;5.05;;;2.10;;
29240;SDS011;16268;49.880;8.648;2022-10-17T12:05:25;5.27;;;2.23;;
29240;SDS011;16268;49.880;8.648;2022-10-17T12:10:34;4.20;;;2.00;;
29240;SDS011;16268;49.880;8.648;2022-10-17T12:15:53;9.98;;;2.55;;
29240;SDS011;16268;49.880;8.648;2022-10-17T12:18:19;5.88;;;2.20;;
29240;SDS011;16268;49.880;8.648;2022-10-17T12:20:58;7.93;;;2.50;;
29240;SDS011;16268;49.880;8.648;2022-10-17T12:23:28;5.60;;;2.20;;
29240;SDS011;16268;49.880;8.648;2022-10-17T12:26:02;6.55;;;2.08;;
29240;SDS011;16268;49.880;8.648;2022-10-17T12:31:01;7.30;;;2.20;;
29240;SDS011;16268;49.880;8.648;2022-10-17T12:38:50;9.20;;;2.58;;
29240;SDS011;16268;49.880;8.648;2022-10-17T12:57:26;5.15;;;2.60;;
29240;SDS011;16268;49.880;8.648;2022-10-17T12:59:54;12.23;;;2.40;;
29240;SDS011;16268;49.880;8.648;2022-10-17T13:02:20;8.65;;;2.50;;
29240;SDS011;16268;49.880;8.648;2022-10-17T13:04:51;6.68;;;2.50;;
29240;SDS011;16268;49.880;8.648;2022-10-17T13:07:23;6.95;;;3.17;;
29240;SDS011;16268;49.880;8.648;2022-10-17T13:09:49;5.22;;;2.50;;
29240;SDS011;16268;49.880;8.648;2022-10-17T13:12:20;7.63;;;2.63;;
29240;SDS011;16268;49.880;8.648;2022-10-17T13:14:49;4.90;;;2.10;;
29240;SDS011;16268;49.880;8.648;2022-10-17T13:17:23;6.47;;;2.38;;
29240;SDS011;16268;49.880;8.648;2022-10-17T13:19:51;7.28;;;2.60;;
29240;SDS011;16268;49.880;8.648;2022-10-17T13:22:21;5.80;;;2.15;;
29240;SDS011;16268;49.880;8.648;2022-10-17T13:24:52;4.97;;;2.45;;
29240;SDS011;16268;49.880;8.648;2022-10-17T13:27:32;6.47;;;2.30;;
29240;SDS011;16268;49.880;8.648;2022-10-17T13:29:59;5.25;;;2.22;;
29240;SDS011;16268;49.880;8.648;2022-10-17T13:32:37;7.40;;;2.50;;
29240;SDS011;16268;49.880;8.648;2022-10-17T13:35:11;4.80;;;2.15;;
29240;SDS011;16268;49.880;8.648;2022-10-17T13:37:39;7.13;;;2.45;;
29240;SDS011;16268;49.880;8.648;2022-10-17T13:40:06;5.85;;;2.03;;
29240;SDS011;16268;49.880;8.648;2022-10-17T13:42:44;7.00;;;2.30;;
29240;SDS011;16268;49.880;8.648;2022-10-17T13:45:22;6.30;;;2.35;;
29240;SDS011;16268;49.880;8.648;2022-10-17T13:48:03;7.25;;;2.25;;
29240;SDS011;16268;49.880;8.648;2022-10-17T13:56:25;6.90;;;2.35;;
29240;SDS011;16268;49.880;8.648;2022-10-17T13:58:54;8.43;;;3.35;;
29240;SDS011;16268;49.880;8.648;2022-10-17T14:01:41;4.95;;;2.60;;
29240;SDS011;16268;49.880;8.648;2022-10-17T14:04:07;5.32;;;2.40;;
29240;SDS011;16268;49.880;8.648;2022-10-17T14:06:33;7.05;;;2.60;;
29240;SDS011;16268;49.880;8.648;2022-10-17T14:09:07;7.10;;;2.45;;
29240;SDS011;16268;49.880;8.648;2022-10-17T14:12:08;6.15;;;2.53;;
29240;SDS011;16268;49.880;8.648;2022-10-17T14:14:37;9.10;;;2.83;;
29240;SDS011;16268;49.880;8.648;2022-10-17T14:17:13;6.57;;;2.58;;
29240;SDS011;16268;49.880;8.648;2022-10-17T14:19:43;5.10;;;2.60;;
29240;SDS011;16268;49.880;8.648;2022-10-17T14:24:47;5.07;;;2.53;;
29240;SDS011;16268;49.880;8.648;2022-10-17T14:27:24;9.77;;;3.45;;
29240;SDS011;16268;49.880;8.648;2022-10-17T14:29:51;7.82;;;2.75;;
29240;SDS011;16268;49.880;8.648;2022-10-17T14:32:18;9.98;;;3.00;;
29240;SDS011;16268;49.880;8.648;2022-10-17T14:34:44;6.90;;;2.67;;
29240;SDS011;16268;49.880;8.648;2022-10-17T14:37:27;5.95;;;2.40;;
29240;SDS011;16268;49.880;8.648;2022-10-17T14:40:17;6.68;;;2.65;;
29240;SDS011;16268;49.880;8.648;2022-10-17T14:42:51;7.28;;;2.65;;
29240;SDS011;16268;49.880;8.648;2022-10-17T14:48:00;5.88;;;2.50;;
29240;SDS011;16268;49.880;8.648;2022-10-17T14:50:30;6.50;;;2.45;;
29240;SDS011;16268;49.880;8.648;2022-10-17T14:55:34;5.60;;;2.38;;
29240;SDS011;16268;49.880;8.648;2022-10-17T14:58:00;7.25;;;2.50;;
29240;SDS011;16268;49.880;8.648;2022-10-17T15:00:39;4.93;;;2.17;;
29240;SDS011;16268;49.880;8.648;2022-10-17T15:03:04;4.45;;;2.47;;
29240;SDS011;16268;49.880;8.648;2022-10-17T15:05:30;6.80;;;2.38;;
29240;SDS011;16268;49.880;8.648;2022-10-17T15:07:56;7.35;;;2.90;;
29240;SDS011;16268;49.880;8.648;2022-10-17T15:10:23;6.47;;;2.55;;
29240;SDS011;16268;49.880;8.648;2022-10-17T15:12:57;4.55;;;2.30;;
29240;SDS011;16268;49.880;8.648;2022-10-17T15:15:24;6.18;;;2.45;;
29240;SDS011;16268;49.880;8.648;2022-10-17T15:17:50;7.60;;;2.40;;
29240;SDS011;16268;49.880;8.648;2022-10-17T15:20:16;6.72;;;3.03;;
29240;SDS011;16268;49.880;8.648;2022-10-17T15:22:42;9.75;;;2.40;;
29240;SDS011;16268;49.880;8.648;2022-10-17T15:25:07;4.45;;;2.13;;
29240;SDS011;16268;49.880;8.648;2022-10-17T15:27:33;7.75;;;2.65;;
29240;SDS011;16268;49.880;8.648;2022-10-17T15:29:59;9.02;;;2.50;;
29240;SDS011;16268;49.880;8.648;2022-10-17T15:32:25;8.77;;;2.65;;
29240;SDS011;16268;49.880;8.648;2022-10-17T15:34:50;8.10;;;2.30;;
29240;SDS011;16268;49.880;8.648;2022-10-17T15:37:25;7.25;;;2.80;;
29240;SDS011;16268;49.880;8.648;2022-10-17T15:39:57;7.82;;;2.65;;
29240;SDS011;16268;49.880;8.648;2022-10-17T15:42:26;5.75;;;2.22;;
29240;SDS011;16268;49.880;8.648;2022-10-17T15:44:53;5.07;;;2.70;;
29240;SDS011;16268;49.880;8.648;2022-10-17T15:47:30;6.57;;;2.50;;
29240;SDS011;16268;49.880;8.648;2022-10-17T15:49:59;5.32;;;2.47;;
29240;SDS011;16268;49.880;8.648;2022-10-17T15:52:25;9.45;;;2.97;;
29240;SDS011;16268;49.880;8.648;2022-10-17T15:54:51;5.75;;;2.50;;
29240;SDS011;16268;49.880;8.648;2022-10-17T15:57:20;5.65;;;2.40;;
29240;SDS011;16268;49.880;8.648;2022-10-17T15:59:48;5.72;;;2.30;;
29240;SDS011;16268;49.880;8.648;2022-10-17T16:02:16;7.68;;;2.85;;
29240;SDS011;16268;49.880;8.648;2022-10-17T16:04:42;6.15;;;2.70;;
29240;SDS011;16268;49.880;8.648;2022-10-17T16:07:09;6.72;;;2.85;;
29240;SDS011;16268;49.880;8.648;2022-10-17T16:09:35;8.35;;;2.80;;
29240;SDS011;16268;49.880;8.648;2022-10-17T16:12:01;7.93;;;2.53;;
29240;SDS011;16268;49.880;8.648;2022-10-17T16:14:29;6.35;;;2.60;;
29240;SDS011;16268;49.880;8.648;2022-10-17T16:16:56;7.60;;;3.03;;
29240;SDS011;16268;49.880;8.648;2022-10-17T16:19:23;6.50;;;2.67;;
29240;SDS011;16268;49.880;8.648;2022-10-17T16:21:51;6.03;;;2.60;;
29240;SDS011;16268;49.880;8.648;2022-10-17T16:24:17;7.43;;;2.88;;
29240;SDS011;16268;49.880;8.648;2022-10-17T16:26:43;6.90;;;2.83;;
29240;SDS011;16268;49.880;8.648;2022-10-17T16:29:09;7.68;;;3.10;;
29240;SDS011;16268;49.880;8.648;2022-10-17T16:31:35;6.85;;;3.08;;
29240;SDS011;16268;49.880;8.648;2022-10-17T16:36:30;11.57;;;5.32;;
29240;SDS011;16268;49.880;8.648;2022-10-17T16:38:56;16.92;;;7.90;;
29240;SDS011;16268;49.880;8.648;2022-10-17T16:41:23;20.52;;;7.60;;
29240;SDS011;16268;49.880;8.648;2022-10-17T16:43:57;12.95;;;7.32;;
29240;SDS011;16268;49.880;8.648;2022-10-17T16:46:25;15.52;;;5.50;;
29240;SDS011;16268;49.880;8.648;2022-10-17T16:48:52;13.13;;;6.07;;
29240;SDS011;16268;49.880;8.648;2022-10-17T16:51:18;12.90;;;5.60;;
29240;SDS011;16268;49.880;8.648;2022-10-17T16:53:45;11.80;;;5.15;;
29240;SDS011;16268;49.880;8.648;2022-10-17T16:56:15;13.18;;;5.20;;
29240;SDS011;16268;49.880;8.648;2022-10-17T16:58:43;8.05;;;4.72;;
29240;SDS011;16268;49.880;8.648;2022-10-17T17:01:11;10.48;;;4.78;;
29240;SDS011;16268;49.880;8.648;2022-10-17T17:03:41;12.40;;;5.32;;
29240;SDS011;16268;49.880;8.648;2022-10-17T17:06:10;11.73;;;4.70;;
29240;SDS011;16268;49.880;8.648;2022-10-17T17:08:37;11.63;;;4.82;;